Seacliff — 3EXM6 — position and weather

sailwx.info

Track history (hours):
 
Tides and Currents Weather Stations Pressure Air Temp Water Temp Dewpoint Dewpoint Depression Visibility Wind Speed Wind Dir Waves Ship Positions

Seacliff

Last reported at 2018-Jun-12 06:03 UTC. Time now 2018-Jun-20 13:30 UTC.
Position S 41°38' E 175°27'.
Warning: this ship's position is 8 days out of date.

Length 169 m; draft 8.3 m.

Type: Cargo ship. MMSI: 370471000.

Date/timePositionNaut miles runAvg speedWind from/ knotsBaromVisibWave heightAir tempDewpointWater temp
2018-Jun-12 06:03S 41°38' E 175°27'1 6.5
2018-Jun-12 05:52S 41°39' E 175°25'3 7.1
2018-Jun-12 05:31S 41°40' E 175°22'3 6.0
2018-Jun-12 04:57S 41°42' E 175°18'3 6.5
2018-Jun-12 04:26S 41°41' E 175°14'6 7.3
2018-Jun-12 03:34S 41°39' E 175°06'1 8.8
2018-Jun-12 03:30S 41°38' E 175°06'1 1.2
2018-Jun-12 03:00S 41°38' E 175°05'3 6.3
2018-Jun-12 02:30S 41°40' E 175°08'3 6.3
2018-Jun-12 02:01S 41°43' E 175°09'4 8.0
2018-Jun-12 01:30S 41°40' E 175°06'5 9.6
2018-Jun-12 01:00S 41°37' E 175°02'710.3
2018-Jun-12 00:18S 41°31' E 174°55'310.2
2018-Jun-11 23:59S 41°29' E 174°52'5 9.7
2018-Jun-11 23:31S 41°25' E 174°49'7 8.6
2018-Jun-11 22:42S 41°18' E 174°51'2 9.9
2018-Jun-11 22:30S 41°16' E 174°49'2 3.2
2018-Jun-11 22:00S 41°16' E 174°47'0 0.0
2018-Jun-11 21:28S 41°16' E 174°47'0 0.0
2018-Jun-11 20:58S 41°16' E 174°47'0 0.0
2018-Jun-11 20:28S 41°16' E 174°47'0 0.0
2018-Jun-11 19:58S 41°16' E 174°47'0 0.0
2018-Jun-11 19:28S 41°16' E 174°47'0 0.0
2018-Jun-11 18:58S 41°16' E 174°47'0 0.0
2018-Jun-11 18:28S 41°16' E 174°47'0 0.0
2018-Jun-11 17:58S 41°16' E 174°47'0 0.1
2018-Jun-11 17:28S 41°16' E 174°47'0 0.0
2018-Jun-11 16:58S 41°16' E 174°47'0 0.0
2018-Jun-11 16:28S 41°16' E 174°47'0 0.0
2018-Jun-11 15:58S 41°16' E 174°47'0 0.1
2018-Jun-11 15:28S 41°16' E 174°47'0 0.0
2018-Jun-11 14:58S 41°16' E 174°47'0 0.0
2018-Jun-11 14:28S 41°16' E 174°47'0 0.0
2018-Jun-11 13:58S 41°16' E 174°47'0 0.0
2018-Jun-11 13:28S 41°16' E 174°47'0 0.0
2018-Jun-11 12:58S 41°16' E 174°47'0 0.0
2018-Jun-11 12:28S 41°16' E 174°47'0 0.0
2018-Jun-11 11:58S 41°16' E 174°47'0 0.0
2018-Jun-11 11:28S 41°16' E 174°47'0 0.0
2018-Jun-11 10:58S 41°16' E 174°47'0 0.0
2018-Jun-11 10:28S 41°16' E 174°47'0 0.0
2018-Jun-11 09:58S 41°16' E 174°47'0 0.0
2018-Jun-11 09:28S 41°16' E 174°47'0 0.0
2018-Jun-11 08:58S 41°16' E 174°47'0 0.0
2018-Jun-11 08:28S 41°16' E 174°47'0 0.0
2018-Jun-11 07:58S 41°16' E 174°47'0 0.0
2018-Jun-11 07:25S 41°16' E 174°47'0 0.0
2018-Jun-11 06:58S 41°16' E 174°47'0 0.0
2018-Jun-11 06:28S 41°16' E 174°47'0 0.0
2018-Jun-11 05:58S 41°16' E 174°47'0 0.0
2018-Jun-11 05:28S 41°16' E 174°47'0 0.1
2018-Jun-11 04:58S 41°16' E 174°47'0 0.0
2018-Jun-11 04:28S 41°16' E 174°47'0 0.1
2018-Jun-11 03:58S 41°16' E 174°47'0 0.1
2018-Jun-11 03:28S 41°16' E 174°47'0 0.1
2018-Jun-11 02:55S 41°16' E 174°47'0 0.0
2018-Jun-11 02:28S 41°16' E 174°47'0 0.0
2018-Jun-11 01:58S 41°16' E 174°47'0 0.0
2018-Jun-11 01:28S 41°16' E 174°47'0 0.0
2018-Jun-11 00:58S 41°16' E 174°47'0 0.0
2018-Jun-11 00:28S 41°16' E 174°47'0 0.0
2018-Jun-10 23:55S 41°16' E 174°47'0 0.0
2018-Jun-10 23:28S 41°16' E 174°47'0 0.0
2018-Jun-10 22:58S 41°16' E 174°47'0 0.0
2018-Jun-10 22:28S 41°16' E 174°47'0 0.0
2018-Jun-10 21:58S 41°16' E 174°47'0 0.0
2018-Jun-10 21:28S 41°16' E 174°47'0 0.0
2018-Jun-10 20:58S 41°16' E 174°47'0 0.0
2018-Jun-10 20:28S 41°16' E 174°47'0 0.0
2018-Jun-10 19:58S 41°16' E 174°47'0 0.0
2018-Jun-10 19:28S 41°16' E 174°47'0 0.0
2018-Jun-10 18:58S 41°16' E 174°47'0 0.0
2018-Jun-10 18:28S 41°16' E 174°47'0 0.0
2018-Jun-10 17:58S 41°16' E 174°47'0 0.1
2018-Jun-10 17:28S 41°16' E 174°47'0 0.0
2018-Jun-10 16:55S 41°16' E 174°47'0 0.0
2018-Jun-10 16:28S 41°16' E 174°47'0 0.1
2018-Jun-10 15:58S 41°16' E 174°47'0 0.0
2018-Jun-10 15:28S 41°16' E 174°47'0 0.0
2018-Jun-10 14:58S 41°16' E 174°47'0 0.0
2018-Jun-10 14:28S 41°16' E 174°47'0 0.0
2018-Jun-10 13:28S 41°16' E 174°47'0 0.0
2018-Jun-10 12:58S 41°16' E 174°47'0 0.0
2018-Jun-10 12:28S 41°16' E 174°47'0 0.1
2018-Jun-10 11:58S 41°16' E 174°47'0 0.1
2018-Jun-10 11:28S 41°16' E 174°47'0 0.8
2018-Jun-10 11:00S 41°16' E 174°48'0 0.7
2018-Jun-10 10:30S 41°16' E 174°48'0 0.1
2018-Jun-10 09:57S 41°16' E 174°48'0 0.0
2018-Jun-10 09:30S 41°16' E 174°48'0 0.0
2018-Jun-10 09:00S 41°16' E 174°48'0 0.1
2018-Jun-10 08:30S 41°16' E 174°48'0 0.1
2018-Jun-10 08:01S 41°16' E 174°48'0 0.0
2018-Jun-10 07:30S 41°16' E 174°48'0 0.1
2018-Jun-10 07:01S 41°16' E 174°48'0 0.0
2018-Jun-10 06:29S 41°16' E 174°48'0 0.0
2018-Jun-10 06:00S 41°16' E 174°48'0 0.1
2018-Jun-10 05:30S 41°16' E 174°48'0 0.1
2018-Jun-10 05:00S 41°16' E 174°48'0 0.0
2018-Jun-10 04:31S 41°16' E 174°48'0 0.0
2018-Jun-10 04:01S 41°16' E 174°48'0 0.1
2018-Jun-10 03:30S 41°16' E 174°48'0 0.1
2018-Jun-10 03:00S 41°16' E 174°48'0 0.0
2018-Jun-10 02:30S 41°16' E 174°48'0 0.0
2018-Jun-10 02:00S 41°16' E 174°48'0 0.1
2018-Jun-10 01:30S 41°16' E 174°48'1 2.4
2018-Jun-10 01:00S 41°17' E 174°49'5 9.4
2018-Jun-10 00:26S 41°22' E 174°50'3 7.1
2018-Jun-10 00:01S 41°24' E 174°48'2 4.7
2018-Jun-09 23:30S 41°27' E 174°47'611.2
2018-Jun-09 23:00S 41°32' E 174°45'2 4.9
2018-Jun-09 22:30S 41°34' E 174°44'1 2.0
2018-Jun-09 22:01S 41°33' E 174°44'1 2.3
2018-Jun-09 21:31S 41°32' E 174°44'1 2.3
2018-Jun-09 21:00S 41°31' E 174°44'1 2.2
2018-Jun-09 20:30S 41°30' E 174°44'1 1.9
2018-Jun-09 20:00S 41°29' E 174°44'1 2.0
2018-Jun-09 19:30S 41°28' E 174°45'1 1.3
2018-Jun-09 19:00S 41°29' E 174°45'2 3.3
2018-Jun-09 18:31S 41°30' E 174°47'1 2.5
2018-Jun-09 18:00S 41°29' E 174°46'1 2.0
2018-Jun-09 17:30S 41°28' E 174°45'1 2.6
2018-Jun-09 17:00S 41°28' E 174°43'5 9.4
2018-Jun-09 16:30S 41°26' E 174°37'510.0
2018-Jun-09 16:00S 41°22' E 174°34'9 9.0
2018-Jun-09 15:01S 41°14' E 174°29'611.0
2018-Jun-09 14:30S 41°08' E 174°30'611.3
2018-Jun-09 14:00S 41°03' E 174°31'611.5
2018-Jun-09 13:30S 40°57' E 174°30'612.3
2018-Jun-09 13:00S 40°52' E 174°25'712.7
2018-Jun-09 12:29S 40°47' E 174°20'613.0
2018-Jun-09 12:00S 40°42' E 174°15'713.0
2018-Jun-09 11:30S 40°37' E 174°10'611.8
2018-Jun-09 11:00S 40°34' E 174°03'612.0
2018-Jun-09 10:30S 40°35' E 173°55'612.7
2018-Jun-09 10:00S 40°40' E 173°50'712.9
2018-Jun-09 09:27S 40°45' E 173°44'612.5
2018-Jun-09 09:00S 40°50' E 173°39'612.3
2018-Jun-09 08:30S 40°55' E 173°34'712.5
2018-Jun-09 07:58S 40°60' E 173°28'712.6
2018-Jun-09 07:26S 41°05' E 173°23'4 0.2
2018-Jun-08 03:31S 41°06' E 173°17'0 3.2
2018-Jun-08 03:28S 41°06' E 173°17'3 5.8
2018-Jun-08 03:01S 41°03' E 173°18'4 8.5
2018-Jun-08 02:30S 40°59' E 173°19'5 9.9
2018-Jun-08 01:59S 40°54' E 173°20'4 9.0
2018-Jun-08 01:30S 40°50' E 173°22'510.2
2018-Jun-08 01:00S 40°45' E 173°24'4 8.3
2018-Jun-08 00:30S 40°41' E 173°25'611.4
2018-Jun-08 00:00S 40°35' E 173°27'2 4.3
2018-Jun-07 23:30S 40°33' E 173°28'0 0.6
2018-Jun-07 23:01S 40°33' E 173°28'0 0.8
2018-Jun-07 22:30S 40°33' E 173°29'1 1.6
2018-Jun-07 22:00S 40°32' E 173°29'2 5.0
2018-Jun-07 21:30S 40°30' E 173°29'3 6.6
2018-Jun-07 21:00S 40°27' E 173°28'612.9
2018-Jun-07 20:29S 40°25' E 173°19'612.7
2018-Jun-07 20:00S 40°23' E 173°12'  
Track history (hours):
 
Tides and Currents Weather Stations Pressure Air Temp Water Temp Dewpoint Dewpoint Depression Visibility Wind Speed Wind Dir Waves Ship Positions

Seacliff

Last reported at 2018-Jun-12 06:03 UTC. Time now 2018-Jun-20 13:30 UTC.
Position S 41°38' E 175°27'.
Warning: this ship's position is 8 days out of date.

Length 169 m; draft 8.3 m.

Type: Cargo ship. MMSI: 370471000.

Date/timePositionNaut miles runAvg speedWind from/ knotsBaromVisibWave heightAir tempDewpointWater temp
2018-Jun-12 06:03S 41°38' E 175°27'1 6.5
2018-Jun-12 05:52S 41°39' E 175°25'3 7.1
2018-Jun-12 05:31S 41°40' E 175°22'3 6.0
2018-Jun-12 04:57S 41°42' E 175°18'3 6.5
2018-Jun-12 04:26S 41°41' E 175°14'6 7.3
2018-Jun-12 03:34S 41°39' E 175°06'1 8.8
2018-Jun-12 03:30S 41°38' E 175°06'1 1.2
2018-Jun-12 03:00S 41°38' E 175°05'3 6.3
2018-Jun-12 02:30S 41°40' E 175°08'3 6.3
2018-Jun-12 02:01S 41°43' E 175°09'4 8.0
2018-Jun-12 01:30S 41°40' E 175°06'5 9.6
2018-Jun-12 01:00S 41°37' E 175°02'710.3
2018-Jun-12 00:18S 41°31' E 174°55'310.2
2018-Jun-11 23:59S 41°29' E 174°52'5 9.7
2018-Jun-11 23:31S 41°25' E 174°49'7 8.6
2018-Jun-11 22:42S 41°18' E 174°51'2 9.9
2018-Jun-11 22:30S 41°16' E 174°49'2 3.2
2018-Jun-11 22:00S 41°16' E 174°47'0 0.0
2018-Jun-11 21:28S 41°16' E 174°47'0 0.0
2018-Jun-11 20:58S 41°16' E 174°47'0 0.0
2018-Jun-11 20:28S 41°16' E 174°47'0 0.0
2018-Jun-11 19:58S 41°16' E 174°47'0 0.0
2018-Jun-11 19:28S 41°16' E 174°47'0 0.0
2018-Jun-11 18:58S 41°16' E 174°47'0 0.0
2018-Jun-11 18:28S 41°16' E 174°47'0 0.0
2018-Jun-11 17:58S 41°16' E 174°47'0 0.1
2018-Jun-11 17:28S 41°16' E 174°47'0 0.0
2018-Jun-11 16:58S 41°16' E 174°47'0 0.0
2018-Jun-11 16:28S 41°16' E 174°47'0 0.0
2018-Jun-11 15:58S 41°16' E 174°47'0 0.1
2018-Jun-11 15:28S 41°16' E 174°47'0 0.0
2018-Jun-11 14:58S 41°16' E 174°47'0 0.0
2018-Jun-11 14:28S 41°16' E 174°47'0 0.0
2018-Jun-11 13:58S 41°16' E 174°47'0 0.0
2018-Jun-11 13:28S 41°16' E 174°47'0 0.0
2018-Jun-11 12:58S 41°16' E 174°47'0 0.0
2018-Jun-11 12:28S 41°16' E 174°47'0 0.0
2018-Jun-11 11:58S 41°16' E 174°47'0 0.0
2018-Jun-11 11:28S 41°16' E 174°47'0 0.0
2018-Jun-11 10:58S 41°16' E 174°47'0 0.0
2018-Jun-11 10:28S 41°16' E 174°47'0 0.0
2018-Jun-11 09:58S 41°16' E 174°47'0 0.0
2018-Jun-11 09:28S 41°16' E 174°47'0 0.0
2018-Jun-11 08:58S 41°16' E 174°47'0 0.0
2018-Jun-11 08:28S 41°16' E 174°47'0 0.0
2018-Jun-11 07:58S 41°16' E 174°47'0 0.0
2018-Jun-11 07:25S 41°16' E 174°47'0 0.0
2018-Jun-11 06:58S 41°16' E 174°47'0 0.0
2018-Jun-11 06:28S 41°16' E 174°47'0 0.0
2018-Jun-11 05:58S 41°16' E 174°47'0 0.0
2018-Jun-11 05:28S 41°16' E 174°47'0 0.1
2018-Jun-11 04:58S 41°16' E 174°47'0 0.0
2018-Jun-11 04:28S 41°16' E 174°47'0 0.1
2018-Jun-11 03:58S 41°16' E 174°47'0 0.1
2018-Jun-11 03:28S 41°16' E 174°47'0 0.1
2018-Jun-11 02:55S 41°16' E 174°47'0 0.0
2018-Jun-11 02:28S 41°16' E 174°47'0 0.0
2018-Jun-11 01:58S 41°16' E 174°47'0 0.0
2018-Jun-11 01:28S 41°16' E 174°47'0 0.0
2018-Jun-11 00:58S 41°16' E 174°47'0 0.0
2018-Jun-11 00:28S 41°16' E 174°47'0 0.0
2018-Jun-10 23:55S 41°16' E 174°47'0 0.0
2018-Jun-10 23:28S 41°16' E 174°47'0 0.0
2018-Jun-10 22:58S 41°16' E 174°47'0 0.0
2018-Jun-10 22:28S 41°16' E 174°47'0 0.0
2018-Jun-10 21:58S 41°16' E 174°47'0 0.0
2018-Jun-10 21:28S 41°16' E 174°47'0 0.0
2018-Jun-10 20:58S 41°16' E 174°47'0 0.0
2018-Jun-10 20:28S 41°16' E 174°47'0 0.0
2018-Jun-10 19:58S 41°16' E 174°47'0 0.0
2018-Jun-10 19:28S 41°16' E 174°47'0 0.0
2018-Jun-10 18:58S 41°16' E 174°47'0 0.0
2018-Jun-10 18:28S 41°16' E 174°47'0 0.0
2018-Jun-10 17:58S 41°16' E 174°47'0 0.1
2018-Jun-10 17:28S 41°16' E 174°47'0 0.0
2018-Jun-10 16:55S 41°16' E 174°47'0 0.0
2018-Jun-10 16:28S 41°16' E 174°47'0 0.1
2018-Jun-10 15:58S 41°16' E 174°47'0 0.0
2018-Jun-10 15:28S 41°16' E 174°47'0 0.0
2018-Jun-10 14:58S 41°16' E 174°47'0 0.0
2018-Jun-10 14:28S 41°16' E 174°47'0 0.0
2018-Jun-10 13:28S 41°16' E 174°47'0 0.0
2018-Jun-10 12:58S 41°16' E 174°47'0 0.0
2018-Jun-10 12:28S 41°16' E 174°47'0 0.1
2018-Jun-10 11:58S 41°16' E 174°47'0 0.1
2018-Jun-10 11:28S 41°16' E 174°47'0 0.8
2018-Jun-10 11:00S 41°16' E 174°48'0 0.7
2018-Jun-10 10:30S 41°16' E 174°48'0 0.1
2018-Jun-10 09:57S 41°16' E 174°48'0 0.0
2018-Jun-10 09:30S 41°16' E 174°48'0 0.0
2018-Jun-10 09:00S 41°16' E 174°48'0 0.1
2018-Jun-10 08:30S 41°16' E 174°48'0 0.1
2018-Jun-10 08:01S 41°16' E 174°48'0 0.0
2018-Jun-10 07:30S 41°16' E 174°48'0 0.1
2018-Jun-10 07:01S 41°16' E 174°48'0 0.0
2018-Jun-10 06:29S 41°16' E 174°48'0 0.0
2018-Jun-10 06:00S 41°16' E 174°48'0 0.1
2018-Jun-10 05:30S 41°16' E 174°48'0 0.1
2018-Jun-10 05:00S 41°16' E 174°48'0 0.0
2018-Jun-10 04:31S 41°16' E 174°48'0 0.0
2018-Jun-10 04:01S 41°16' E 174°48'0 0.1
2018-Jun-10 03:30S 41°16' E 174°48'0 0.1
2018-Jun-10 03:00S 41°16' E 174°48'0 0.0
2018-Jun-10 02:30S 41°16' E 174°48'0 0.0
2018-Jun-10 02:00S 41°16' E 174°48'0 0.1
2018-Jun-10 01:30S 41°16' E 174°48'1 2.4
2018-Jun-10 01:00S 41°17' E 174°49'5 9.4
2018-Jun-10 00:26S 41°22' E 174°50'3 7.1
2018-Jun-10 00:01S 41°24' E 174°48'2 4.7
2018-Jun-09 23:30S 41°27' E 174°47'611.2
2018-Jun-09 23:00S 41°32' E 174°45'2 4.9
2018-Jun-09 22:30S 41°34' E 174°44'1 2.0
2018-Jun-09 22:01S 41°33' E 174°44'1 2.3
2018-Jun-09 21:31S 41°32' E 174°44'1 2.3
2018-Jun-09 21:00S 41°31' E 174°44'1 2.2
2018-Jun-09 20:30S 41°30' E 174°44'1 1.9
2018-Jun-09 20:00S 41°29' E 174°44'1 2.0
2018-Jun-09 19:30S 41°28' E 174°45'1 1.3
2018-Jun-09 19:00S 41°29' E 174°45'2 3.3
2018-Jun-09 18:31S 41°30' E 174°47'1 2.5
2018-Jun-09 18:00S 41°29' E 174°46'1 2.0
2018-Jun-09 17:30S 41°28' E 174°45'1 2.6
2018-Jun-09 17:00S 41°28' E 174°43'5 9.4
2018-Jun-09 16:30S 41°26' E 174°37'510.0
2018-Jun-09 16:00S 41°22' E 174°34'9 9.0
2018-Jun-09 15:01S 41°14' E 174°29'611.0
2018-Jun-09 14:30S 41°08' E 174°30'611.3
2018-Jun-09 14:00S 41°03' E 174°31'611.5
2018-Jun-09 13:30S 40°57' E 174°30'612.3
2018-Jun-09 13:00S 40°52' E 174°25'712.7
2018-Jun-09 12:29S 40°47' E 174°20'613.0
2018-Jun-09 12:00S 40°42' E 174°15'713.0
2018-Jun-09 11:30S 40°37' E 174°10'611.8
2018-Jun-09 11:00S 40°34' E 174°03'612.0
2018-Jun-09 10:30S 40°35' E 173°55'612.7
2018-Jun-09 10:00S 40°40' E 173°50'712.9
2018-Jun-09 09:27S 40°45' E 173°44'612.5
2018-Jun-09 09:00S 40°50' E 173°39'612.3
2018-Jun-09 08:30S 40°55' E 173°34'712.5
2018-Jun-09 07:58S 40°60' E 173°28'712.6
2018-Jun-09 07:26S 41°05' E 173°23'4 0.2
2018-Jun-08 03:31S 41°06' E 173°17'0 3.2
2018-Jun-08 03:28S 41°06' E 173°17'3 5.8
2018-Jun-08 03:01S 41°03' E 173°18'4 8.5
2018-Jun-08 02:30S 40°59' E 173°19'5 9.9
2018-Jun-08 01:59S 40°54' E 173°20'4 9.0
2018-Jun-08 01:30S 40°50' E 173°22'510.2
2018-Jun-08 01:00S 40°45' E 173°24'4 8.3
2018-Jun-08 00:30S 40°41' E 173°25'611.4
2018-Jun-08 00:00S 40°35' E 173°27'2 4.3
2018-Jun-07 23:30S 40°33' E 173°28'0 0.6
2018-Jun-07 23:01S 40°33' E 173°28'0 0.8
2018-Jun-07 22:30S 40°33' E 173°29'1 1.6
2018-Jun-07 22:00S 40°32' E 173°29'2 5.0
2018-Jun-07 21:30S 40°30' E 173°29'3 6.6
2018-Jun-07 21:00S 40°27' E 173°28'612.9
2018-Jun-07 20:29S 40°25' E 173°19'612.7
2018-Jun-07 20:00S 40°23' E 173°12'  

Dump ship's entire track history